Overview Statistics Trail Chart Weather Telemetry Raw packets
 

This is the latest recevied telemetry packets stored in our database for station/object IU5IWS-8. If no packets are shown the sender has not sent any telemetry packets the latest 10 day(s).

Telemetry packets is used to share measurements like repeteater parameters, battery voltage, radiation readings (or any other measurements).

Time Press* Temp.in* Hum* QNH* Temp.out*
1777997735 1013.1 hPa 24 C deg 59.7 % 1015.2 hPa 0 C deg
1777995541 1013.1 hPa 24.7 C deg 57.5 % 1015.2 hPa 0 C deg
1777993844 1013.7 hPa 21.9 C deg 38.9 % 1015.8 hPa 0 C deg
1777988718 1014.2 hPa 28.1 C deg 33 % 1016.3 hPa 0 C deg
1777987501 1013.8 hPa 36 C deg 35 % 1015.9 hPa 0 C deg
1777987160 1013.2 hPa 24.2 C deg 60.2 % 1015.3 hPa 0 C deg
1777733451 1020.1 hPa 23.8 C deg 39.3 % 1027.5 hPa 0 C deg
1777365124 1016.5 hPa 28.3 C deg 35 % 1018.1 hPa 0 C deg
1777363852 1017.1 hPa 23.7 C deg 35.5 % 1018.7 hPa 0 C deg
1777363419 1016.8 hPa 22.6 C deg 38.7 % 1018.4 hPa 0 C deg
1777362091 1015.9 hPa 25.7 C deg 44.4 % 1017.5 hPa 0 C deg
1777360275 1016 hPa 25.8 C deg 43.8 % 1017.6 hPa 0 C deg
1777358468 1015.9 hPa 25.8 C deg 43.7 % 1017.5 hPa 0 C deg
1777354834 1015.7 hPa 25.9 C deg 43.4 % 1017.3 hPa 0 C deg
1777353016 1015.6 hPa 25.9 C deg 43.6 % 1017.2 hPa 0 C deg
1777351202 1015.4 hPa 26 C deg 43.6 % 1017 hPa 0 C deg
1777349388 1015.4 hPa 26 C deg 43.4 % 1017 hPa 0 C deg
1777347571 1015.4 hPa 26.2 C deg 43.1 % 1017 hPa 0 C deg
1777343952 1015.8 hPa 26.5 C deg 42.9 % 1017.4 hPa 0 C deg
1777342129 1016 hPa 26.7 C deg 42.6 % 1017.6 hPa 0 C deg
1777340307 1016 hPa 27.2 C deg 41.8 % 1017.6 hPa 0 C deg
1777338488 1016.2 hPa 27.4 C deg 41.6 % 1017.8 hPa 0 C deg
1777336692 1016.3 hPa 27.1 C deg 42.5 % 1018 hPa 0 C deg
*Used Equation Coefficients:
Press: 0, 1, 0
Temp.in: 0, 1, 0
Hum: 0, 1, 0
QNH: 0, 1, 0
Temp.out: 0, 1, 0

  • The parameter names for the analog channels will be Value1, Value2, Value3 (up to Value5) if station has not sent a PARAM-packet that specifies the parameter names for each analog channel.
  • Each analog value is a decimal number between 000 and 255 (according to APRS specifications). The receiver use the telemetry equation coefficientsto to restore the original sensor values. If no EQNS-packet with equation coefficients is sent we will show the values as is (this corresponds to the equation coefficients a=0, b=1 and c=0).
    The sent equation coefficients is used in the equation: a * value2 + b * value + c.
  • The units for the analog values will not be shown if station has not sent a UNIT-packet specifying what unit's to use.
  • The parameter names for the digital bits will be Bit1, Bit2, Bit3 (up to Bit8) if station has not sent a PARAM-packet that specifies the parameter names for each digital bit.
  • All bit labels will be named "On" if station has not sent a UNIT-packet that specifies the label of each bit.
  • A bit is considered to be On when the bit is 1 if station has not sent a BITS-packet that specifies another "Bit sense" (a BITS-packet specify the state of the bits that match the BIT labels)